sensor_id;sensor_type;location;lat;lon;timestamp;P1;durP1;ratioP1;P2;durP2;ratioP2
77453;SDS011;66538;53.150;18.160;2023-07-30T00:00:45;8.70;;;5.50;;
77453;SDS011;66538;53.150;18.160;2023-07-30T00:03:31;8.20;;;5.10;;
77453;SDS011;66538;53.150;18.160;2023-07-30T00:05:58;9.60;;;5.90;;
77453;SDS011;66538;53.150;18.160;2023-07-30T00:08:24;9.00;;;6.00;;
77453;SDS011;66538;53.150;18.160;2023-07-30T00:10:51;10.50;;;6.00;;
77453;SDS011;66538;53.150;18.160;2023-07-30T00:13:17;9.00;;;6.40;;
77453;SDS011;66538;53.150;18.160;2023-07-30T00:15:47;8.70;;;5.20;;
77453;SDS011;66538;53.150;18.160;2023-07-30T00:18:14;10.00;;;5.20;;
77453;SDS011;66538;53.150;18.160;2023-07-30T00:20:42;8.50;;;5.10;;
77453;SDS011;66538;53.150;18.160;2023-07-30T00:23:09;11.30;;;5.80;;
77453;SDS011;66538;53.150;18.160;2023-07-30T00:25:35;11.60;;;7.10;;
77453;SDS011;66538;53.150;18.160;2023-07-30T00:31:02;10.00;;;5.90;;
77453;SDS011;66538;53.150;18.160;2023-07-30T00:33:28;9.90;;;6.40;;
77453;SDS011;66538;53.150;18.160;2023-07-30T00:35:55;12.50;;;7.80;;
77453;SDS011;66538;53.150;18.160;2023-07-30T00:38:22;10.30;;;6.70;;
77453;SDS011;66538;53.150;18.160;2023-07-30T00:40:48;9.90;;;6.50;;
77453;SDS011;66538;53.150;18.160;2023-07-30T00:43:15;11.40;;;6.80;;
77453;SDS011;66538;53.150;18.160;2023-07-30T00:45:43;9.10;;;5.90;;
77453;SDS011;66538;53.150;18.160;2023-07-30T00:50:39;11.20;;;7.10;;
77453;SDS011;66538;53.150;18.160;2023-07-30T00:53:07;9.80;;;6.10;;
77453;SDS011;66538;53.150;18.160;2023-07-30T00:55:36;10.80;;;6.70;;
77453;SDS011;66538;53.150;18.160;2023-07-30T00:58:03;11.80;;;6.90;;
77453;SDS011;66538;53.150;18.160;2023-07-30T01:00:30;8.30;;;4.90;;
77453;SDS011;66538;53.150;18.160;2023-07-30T01:02:58;8.30;;;5.40;;
77453;SDS011;66538;53.150;18.160;2023-07-30T01:05:25;8.70;;;5.30;;
77453;SDS011;66538;53.150;18.160;2023-07-30T01:07:52;10.30;;;5.40;;
77453;SDS011;66538;53.150;18.160;2023-07-30T01:10:19;11.10;;;6.50;;
77453;SDS011;66538;53.150;18.160;2023-07-30T01:12:47;11.10;;;7.30;;
77453;SDS011;66538;53.150;18.160;2023-07-30T01:15:14;11.80;;;6.30;;
77453;SDS011;66538;53.150;18.160;2023-07-30T01:17:41;12.80;;;6.70;;
77453;SDS011;66538;53.150;18.160;2023-07-30T01:20:09;9.50;;;5.90;;
77453;SDS011;66538;53.150;18.160;2023-07-30T01:22:37;10.50;;;6.30;;
77453;SDS011;66538;53.150;18.160;2023-07-30T01:25:03;11.40;;;6.80;;
77453;SDS011;66538;53.150;18.160;2023-07-30T01:27:31;11.80;;;7.30;;
77453;SDS011;66538;53.150;18.160;2023-07-30T01:32:32;14.40;;;7.10;;
77453;SDS011;66538;53.150;18.160;2023-07-30T01:35:00;10.70;;;6.70;;
77453;SDS011;66538;53.150;18.160;2023-07-30T01:37:29;13.00;;;7.90;;
77453;SDS011;66538;53.150;18.160;2023-07-30T01:39:56;16.80;;;9.50;;
77453;SDS011;66538;53.150;18.160;2023-07-30T01:42:27;14.00;;;7.60;;
77453;SDS011;66538;53.150;18.160;2023-07-30T01:44:55;12.70;;;8.60;;
77453;SDS011;66538;53.150;18.160;2023-07-30T01:47:22;15.90;;;8.50;;
77453;SDS011;66538;53.150;18.160;2023-07-30T01:49:49;17.80;;;9.80;;
77453;SDS011;66538;53.150;18.160;2023-07-30T01:52:15;14.80;;;8.70;;
77453;SDS011;66538;53.150;18.160;2023-07-30T01:54:42;14.40;;;9.00;;
77453;SDS011;66538;53.150;18.160;2023-07-30T01:57:09;14.80;;;8.50;;
77453;SDS011;66538;53.150;18.160;2023-07-30T01:59:36;14.10;;;8.10;;
77453;SDS011;66538;53.150;18.160;2023-07-30T02:02:03;14.10;;;9.40;;
77453;SDS011;66538;53.150;18.160;2023-07-30T02:04:30;14.10;;;8.50;;
77453;SDS011;66538;53.150;18.160;2023-07-30T02:06:57;12.20;;;7.20;;
77453;SDS011;66538;53.150;18.160;2023-07-30T02:09:23;14.50;;;8.80;;
77453;SDS011;66538;53.150;18.160;2023-07-30T02:11:50;11.70;;;7.40;;
77453;SDS011;66538;53.150;18.160;2023-07-30T02:14:17;14.30;;;8.70;;
77453;SDS011;66538;53.150;18.160;2023-07-30T02:16:44;15.30;;;9.10;;
77453;SDS011;66538;53.150;18.160;2023-07-30T02:19:11;14.20;;;9.00;;
77453;SDS011;66538;53.150;18.160;2023-07-30T02:21:38;14.10;;;8.80;;
77453;SDS011;66538;53.150;18.160;2023-07-30T02:24:09;16.10;;;9.80;;
77453;SDS011;66538;53.150;18.160;2023-07-30T02:26:37;13.10;;;7.90;;
77453;SDS011;66538;53.150;18.160;2023-07-30T02:29:05;14.50;;;9.80;;
77453;SDS011;66538;53.150;18.160;2023-07-30T02:31:31;17.10;;;8.60;;
77453;SDS011;66538;53.150;18.160;2023-07-30T02:33:58;15.90;;;10.40;;
77453;SDS011;66538;53.150;18.160;2023-07-30T02:36:25;18.90;;;10.70;;
77453;SDS011;66538;53.150;18.160;2023-07-30T02:38:51;17.50;;;10.60;;
77453;SDS011;66538;53.150;18.160;2023-07-30T02:41:18;14.40;;;8.80;;
77453;SDS011;66538;53.150;18.160;2023-07-30T02:43:44;14.50;;;9.00;;
77453;SDS011;66538;53.150;18.160;2023-07-30T02:46:11;16.90;;;9.90;;
77453;SDS011;66538;53.150;18.160;2023-07-30T02:48:38;18.60;;;10.70;;
77453;SDS011;66538;53.150;18.160;2023-07-30T02:51:05;17.00;;;10.90;;
77453;SDS011;66538;53.150;18.160;2023-07-30T02:53:31;15.00;;;8.80;;
77453;SDS011;66538;53.150;18.160;2023-07-30T02:55:58;14.30;;;8.90;;
77453;SDS011;66538;53.150;18.160;2023-07-30T02:58:25;11.80;;;7.70;;
77453;SDS011;66538;53.150;18.160;2023-07-30T03:00:51;15.20;;;8.10;;
77453;SDS011;66538;53.150;18.160;2023-07-30T03:03:18;12.00;;;7.60;;
77453;SDS011;66538;53.150;18.160;2023-07-30T03:05:44;13.20;;;8.30;;
77453;SDS011;66538;53.150;18.160;2023-07-30T03:08:11;17.00;;;8.70;;
77453;SDS011;66538;53.150;18.160;2023-07-30T03:10:37;16.30;;;9.20;;
77453;SDS011;66538;53.150;18.160;2023-07-30T03:13:04;15.40;;;8.50;;
77453;SDS011;66538;53.150;18.160;2023-07-30T03:15:31;16.20;;;8.50;;
77453;SDS011;66538;53.150;18.160;2023-07-30T03:17:58;14.10;;;8.50;;
77453;SDS011;66538;53.150;18.160;2023-07-30T03:20:24;13.30;;;7.70;;
77453;SDS011;66538;53.150;18.160;2023-07-30T03:22:51;15.70;;;9.30;;
77453;SDS011;66538;53.150;18.160;2023-07-30T03:25:18;13.50;;;8.20;;
77453;SDS011;66538;53.150;18.160;2023-07-30T03:27:45;15.50;;;9.90;;
77453;SDS011;66538;53.150;18.160;2023-07-30T03:30:11;12.80;;;7.90;;
77453;SDS011;66538;53.150;18.160;2023-07-30T03:32:38;15.30;;;8.60;;
77453;SDS011;66538;53.150;18.160;2023-07-30T03:35:06;13.10;;;8.20;;
77453;SDS011;66538;53.150;18.160;2023-07-30T03:37:34;11.60;;;7.10;;
77453;SDS011;66538;53.150;18.160;2023-07-30T03:40:01;13.40;;;8.00;;
77453;SDS011;66538;53.150;18.160;2023-07-30T03:42:29;16.10;;;8.40;;
77453;SDS011;66538;53.150;18.160;2023-07-30T03:44:56;13.60;;;7.60;;
77453;SDS011;66538;53.150;18.160;2023-07-30T03:47:22;13.60;;;7.80;;
77453;SDS011;66538;53.150;18.160;2023-07-30T03:49:49;14.70;;;9.50;;
77453;SDS011;66538;53.150;18.160;2023-07-30T03:52:15;15.00;;;9.10;;
77453;SDS011;66538;53.150;18.160;2023-07-30T03:54:44;11.70;;;7.60;;
77453;SDS011;66538;53.150;18.160;2023-07-30T03:57:10;13.80;;;8.50;;
77453;SDS011;66538;53.150;18.160;2023-07-30T03:59:37;16.00;;;9.40;;
77453;SDS011;66538;53.150;18.160;2023-07-30T04:02:04;15.00;;;9.20;;
77453;SDS011;66538;53.150;18.160;2023-07-30T04:04:30;16.60;;;9.50;;
77453;SDS011;66538;53.150;18.160;2023-07-30T04:06:59;16.00;;;9.10;;
77453;SDS011;66538;53.150;18.160;2023-07-30T04:09:26;14.80;;;8.90;;
77453;SDS011;66538;53.150;18.160;2023-07-30T04:11:53;15.80;;;8.70;;
77453;SDS011;66538;53.150;18.160;2023-07-30T04:14:19;16.00;;;8.70;;
77453;SDS011;66538;53.150;18.160;2023-07-30T04:16:46;15.10;;;8.80;;
77453;SDS011;66538;53.150;18.160;2023-07-30T04:19:14;12.90;;;8.10;;
77453;SDS011;66538;53.150;18.160;2023-07-30T04:21:40;17.40;;;9.90;;
77453;SDS011;66538;53.150;18.160;2023-07-30T04:24:08;15.70;;;9.80;;
77453;SDS011;66538;53.150;18.160;2023-07-30T04:26:34;14.10;;;8.80;;
77453;SDS011;66538;53.150;18.160;2023-07-30T04:29:01;16.10;;;9.20;;
77453;SDS011;66538;53.150;18.160;2023-07-30T04:31:28;21.50;;;10.80;;
77453;SDS011;66538;53.150;18.160;2023-07-30T04:33:55;18.60;;;9.40;;
77453;SDS011;66538;53.150;18.160;2023-07-30T04:36:22;17.30;;;9.30;;
77453;SDS011;66538;53.150;18.160;2023-07-30T04:38:49;17.10;;;9.60;;
77453;SDS011;66538;53.150;18.160;2023-07-30T04:41:17;16.20;;;9.70;;
77453;SDS011;66538;53.150;18.160;2023-07-30T04:43:48;17.90;;;10.00;;
77453;SDS011;66538;53.150;18.160;2023-07-30T04:46:15;17.80;;;9.10;;
77453;SDS011;66538;53.150;18.160;2023-07-30T04:48:42;15.80;;;9.10;;
77453;SDS011;66538;53.150;18.160;2023-07-30T04:51:10;19.50;;;10.80;;
77453;SDS011;66538;53.150;18.160;2023-07-30T04:53:36;21.20;;;12.70;;
77453;SDS011;66538;53.150;18.160;2023-07-30T04:56:03;26.30;;;15.10;;
77453;SDS011;66538;53.150;18.160;2023-07-30T04:58:30;27.90;;;16.20;;
77453;SDS011;66538;53.150;18.160;2023-07-30T05:00:56;27.20;;;14.10;;
77453;SDS011;66538;53.150;18.160;2023-07-30T05:03:23;30.00;;;16.10;;
77453;SDS011;66538;53.150;18.160;2023-07-30T05:05:49;26.10;;;13.60;;
77453;SDS011;66538;53.150;18.160;2023-07-30T05:08:16;22.70;;;11.60;;
77453;SDS011;66538;53.150;18.160;2023-07-30T05:10:42;18.20;;;9.80;;
77453;SDS011;66538;53.150;18.160;2023-07-30T05:13:09;18.70;;;10.60;;
77453;SDS011;66538;53.150;18.160;2023-07-30T05:15:36;18.70;;;9.80;;
77453;SDS011;66538;53.150;18.160;2023-07-30T05:18:02;20.10;;;11.80;;
77453;SDS011;66538;53.150;18.160;2023-07-30T05:20:29;17.90;;;10.60;;
77453;SDS011;66538;53.150;18.160;2023-07-30T05:22:56;20.20;;;10.40;;
77453;SDS011;66538;53.150;18.160;2023-07-30T05:25:22;21.70;;;11.80;;
77453;SDS011;66538;53.150;18.160;2023-07-30T05:27:49;18.00;;;10.70;;
77453;SDS011;66538;53.150;18.160;2023-07-30T05:30:16;19.80;;;11.90;;
77453;SDS011;66538;53.150;18.160;2023-07-30T05:32:42;22.50;;;12.70;;
77453;SDS011;66538;53.150;18.160;2023-07-30T05:35:09;23.10;;;13.50;;
77453;SDS011;66538;53.150;18.160;2023-07-30T05:37:35;19.20;;;10.80;;
77453;SDS011;66538;53.150;18.160;2023-07-30T05:40:02;17.20;;;11.00;;
77453;SDS011;66538;53.150;18.160;2023-07-30T05:42:29;18.10;;;11.00;;
77453;SDS011;66538;53.150;18.160;2023-07-30T05:44:56;17.80;;;10.60;;
77453;SDS011;66538;53.150;18.160;2023-07-30T05:47:22;18.00;;;11.20;;
77453;SDS011;66538;53.150;18.160;2023-07-30T05:49:49;17.90;;;11.30;;
77453;SDS011;66538;53.150;18.160;2023-07-30T05:52:15;18.10;;;11.00;;
77453;SDS011;66538;53.150;18.160;2023-07-30T05:54:42;20.70;;;12.20;;
77453;SDS011;66538;53.150;18.160;2023-07-30T05:57:08;18.30;;;11.00;;
77453;SDS011;66538;53.150;18.160;2023-07-30T05:59:35;17.60;;;10.10;;
77453;SDS011;66538;53.150;18.160;2023-07-30T06:02:02;20.40;;;11.70;;
77453;SDS011;66538;53.150;18.160;2023-07-30T06:04:30;17.20;;;11.90;;
77453;SDS011;66538;53.150;18.160;2023-07-30T06:06:58;18.40;;;12.50;;
77453;SDS011;66538;53.150;18.160;2023-07-30T06:09:27;14.80;;;10.40;;
77453;SDS011;66538;53.150;18.160;2023-07-30T06:11:55;18.10;;;11.60;;
77453;SDS011;66538;53.150;18.160;2023-07-30T06:14:23;17.20;;;10.70;;
77453;SDS011;66538;53.150;18.160;2023-07-30T06:16:50;16.40;;;11.00;;
77453;SDS011;66538;53.150;18.160;2023-07-30T06:19:17;16.30;;;11.40;;
77453;SDS011;66538;53.150;18.160;2023-07-30T06:21:44;16.10;;;11.10;;
77453;SDS011;66538;53.150;18.160;2023-07-30T06:24:11;17.40;;;11.50;;
77453;SDS011;66538;53.150;18.160;2023-07-30T06:26:37;16.90;;;11.70;;
77453;SDS011;66538;53.150;18.160;2023-07-30T06:29:04;18.30;;;12.30;;
77453;SDS011;66538;53.150;18.160;2023-07-30T06:31:30;16.60;;;11.80;;
77453;SDS011;66538;53.150;18.160;2023-07-30T06:33:57;13.00;;;9.80;;
77453;SDS011;66538;53.150;18.160;2023-07-30T06:36:24;15.30;;;10.80;;
77453;SDS011;66538;53.150;18.160;2023-07-30T06:38:50;16.20;;;10.90;;
77453;SDS011;66538;53.150;18.160;2023-07-30T06:41:17;17.10;;;11.30;;
77453;SDS011;66538;53.150;18.160;2023-07-30T06:43:44;16.50;;;10.10;;
77453;SDS011;66538;53.150;18.160;2023-07-30T06:46:10;13.80;;;10.10;;
77453;SDS011;66538;53.150;18.160;2023-07-30T06:48:37;17.00;;;12.30;;
77453;SDS011;66538;53.150;18.160;2023-07-30T06:51:06;15.00;;;12.10;;
77453;SDS011;66538;53.150;18.160;2023-07-30T06:53:33;15.20;;;10.90;;
77453;SDS011;66538;53.150;18.160;2023-07-30T06:56:00;14.70;;;11.30;;
77453;SDS011;66538;53.150;18.160;2023-07-30T06:58:27;15.80;;;11.30;;
77453;SDS011;66538;53.150;18.160;2023-07-30T07:00:53;13.70;;;9.90;;
77453;SDS011;66538;53.150;18.160;2023-07-30T07:03:20;15.50;;;11.40;;
77453;SDS011;66538;53.150;18.160;2023-07-30T07:05:53;13.40;;;9.50;;
77453;SDS011;66538;53.150;18.160;2023-07-30T07:08:21;15.90;;;11.40;;
77453;SDS011;66538;53.150;18.160;2023-07-30T07:10:48;14.50;;;10.50;;
77453;SDS011;66538;53.150;18.160;2023-07-30T07:13:16;14.10;;;9.90;;
77453;SDS011;66538;53.150;18.160;2023-07-30T07:15:43;11.80;;;9.30;;
77453;SDS011;66538;53.150;18.160;2023-07-30T07:18:10;13.10;;;9.10;;
77453;SDS011;66538;53.150;18.160;2023-07-30T07:20:37;14.00;;;11.10;;
77453;SDS011;66538;53.150;18.160;2023-07-30T07:23:04;14.40;;;10.60;;
77453;SDS011;66538;53.150;18.160;2023-07-30T07:25:30;13.80;;;10.70;;
77453;SDS011;66538;53.150;18.160;2023-07-30T07:27:57;13.50;;;9.90;;
77453;SDS011;66538;53.150;18.160;2023-07-30T07:30:24;12.60;;;9.50;;
77453;SDS011;66538;53.150;18.160;2023-07-30T07:32:51;12.90;;;9.80;;
77453;SDS011;66538;53.150;18.160;2023-07-30T07:35:19;10.40;;;8.40;;
77453;SDS011;66538;53.150;18.160;2023-07-30T07:37:46;12.60;;;8.90;;
77453;SDS011;66538;53.150;18.160;2023-07-30T07:40:13;11.90;;;8.70;;
77453;SDS011;66538;53.150;18.160;2023-07-30T07:42:40;10.40;;;8.10;;
77453;SDS011;66538;53.150;18.160;2023-07-30T07:45:07;9.60;;;7.90;;
77453;SDS011;66538;53.150;18.160;2023-07-30T07:47:34;10.30;;;8.20;;
77453;SDS011;66538;53.150;18.160;2023-07-30T07:50:01;13.10;;;9.80;;
77453;SDS011;66538;53.150;18.160;2023-07-30T07:52:28;10.60;;;9.10;;
77453;SDS011;66538;53.150;18.160;2023-07-30T07:54:54;9.90;;;8.70;;
77453;SDS011;66538;53.150;18.160;2023-07-30T07:57:22;10.10;;;8.00;;
77453;SDS011;66538;53.150;18.160;2023-07-30T07:59:49;10.60;;;8.70;;
77453;SDS011;66538;53.150;18.160;2023-07-30T08:02:15;10.00;;;8.30;;
77453;SDS011;66538;53.150;18.160;2023-07-30T08:04:42;9.80;;;8.30;;
77453;SDS011;66538;53.150;18.160;2023-07-30T08:07:09;10.90;;;8.70;;
77453;SDS011;66538;53.150;18.160;2023-07-30T08:09:35;9.50;;;7.30;;
77453;SDS011;66538;53.150;18.160;2023-07-30T08:12:02;9.60;;;7.90;;
77453;SDS011;66538;53.150;18.160;2023-07-30T08:14:29;9.10;;;7.60;;
77453;SDS011;66538;53.150;18.160;2023-07-30T08:16:56;11.20;;;8.30;;
77453;SDS011;66538;53.150;18.160;2023-07-30T08:19:23;10.80;;;7.60;;
77453;SDS011;66538;53.150;18.160;2023-07-30T08:21:49;10.40;;;7.40;;
77453;SDS011;66538;53.150;18.160;2023-07-30T08:24:16;8.90;;;7.20;;
77453;SDS011;66538;53.150;18.160;2023-07-30T08:26:42;8.50;;;6.60;;
77453;SDS011;66538;53.150;18.160;2023-07-30T08:29:09;9.50;;;7.20;;
77453;SDS011;66538;53.150;18.160;2023-07-30T08:31:40;11.00;;;8.10;;
77453;SDS011;66538;53.150;18.160;2023-07-30T08:34:07;9.40;;;7.70;;
77453;SDS011;66538;53.150;18.160;2023-07-30T08:36:34;9.20;;;6.50;;
77453;SDS011;66538;53.150;18.160;2023-07-30T08:39:01;7.90;;;6.80;;
77453;SDS011;66538;53.150;18.160;2023-07-30T08:41:28;10.30;;;6.90;;
77453;SDS011;66538;53.150;18.160;2023-07-30T08:43:55;8.00;;;6.50;;
77453;SDS011;66538;53.150;18.160;2023-07-30T08:46:22;7.40;;;6.30;;
77453;SDS011;66538;53.150;18.160;2023-07-30T08:48:48;10.60;;;7.90;;
77453;SDS011;66538;53.150;18.160;2023-07-30T08:51:16;9.70;;;6.80;;
77453;SDS011;66538;53.150;18.160;2023-07-30T08:53:43;8.40;;;7.10;;
77453;SDS011;66538;53.150;18.160;2023-07-30T08:56:10;8.50;;;6.30;;
77453;SDS011;66538;53.150;18.160;2023-07-30T08:58:38;11.20;;;7.70;;
77453;SDS011;66538;53.150;18.160;2023-07-30T09:01:06;8.10;;;6.90;;
77453;SDS011;66538;53.150;18.160;2023-07-30T09:03:39;8.30;;;6.90;;
77453;SDS011;66538;53.150;18.160;2023-07-30T09:06:07;7.30;;;6.00;;
77453;SDS011;66538;53.150;18.160;2023-07-30T09:08:34;8.10;;;6.80;;
77453;SDS011;66538;53.150;18.160;2023-07-30T09:11:08;7.50;;;6.20;;
77453;SDS011;66538;53.150;18.160;2023-07-30T09:13:38;8.90;;;6.70;;
77453;SDS011;66538;53.150;18.160;2023-07-30T09:16:09;5.50;;;4.60;;
77453;SDS011;66538;53.150;18.160;2023-07-30T09:18:40;8.90;;;6.20;;
77453;SDS011;66538;53.150;18.160;2023-07-30T09:21:09;7.40;;;5.90;;
77453;SDS011;66538;53.150;18.160;2023-07-30T09:23:40;7.80;;;6.40;;
77453;SDS011;66538;53.150;18.160;2023-07-30T09:26:08;8.20;;;6.00;;
77453;SDS011;66538;53.150;18.160;2023-07-30T09:28:36;7.60;;;6.20;;
77453;SDS011;66538;53.150;18.160;2023-07-30T09:31:03;7.50;;;5.90;;
77453;SDS011;66538;53.150;18.160;2023-07-30T09:33:31;8.40;;;6.40;;
77453;SDS011;66538;53.150;18.160;2023-07-30T09:36:02;7.40;;;5.60;;
77453;SDS011;66538;53.150;18.160;2023-07-30T09:38:29;7.90;;;6.40;;
77453;SDS011;66538;53.150;18.160;2023-07-30T09:41:00;8.40;;;7.20;;
77453;SDS011;66538;53.150;18.160;2023-07-30T09:43:36;7.60;;;6.50;;
77453;SDS011;66538;53.150;18.160;2023-07-30T09:46:04;8.80;;;6.80;;
77453;SDS011;66538;53.150;18.160;2023-07-30T09:48:33;7.50;;;5.70;;
77453;SDS011;66538;53.150;18.160;2023-07-30T09:53:34;7.60;;;6.00;;
77453;SDS011;66538;53.150;18.160;2023-07-30T09:56:01;6.90;;;5.80;;
77453;SDS011;66538;53.150;18.160;2023-07-30T09:58:29;7.30;;;5.90;;
77453;SDS011;66538;53.150;18.160;2023-07-30T10:00:57;8.10;;;6.10;;
77453;SDS011;66538;53.150;18.160;2023-07-30T10:03:25;8.30;;;6.70;;
77453;SDS011;66538;53.150;18.160;2023-07-30T10:05:59;8.10;;;5.80;;
77453;SDS011;66538;53.150;18.160;2023-07-30T10:08:30;7.30;;;5.70;;
77453;SDS011;66538;53.150;18.160;2023-07-30T10:11:00;8.90;;;6.70;;
77453;SDS011;66538;53.150;18.160;2023-07-30T10:13:31;7.70;;;6.00;;
77453;SDS011;66538;53.150;18.160;2023-07-30T10:15:58;7.30;;;5.50;;
77453;SDS011;66538;53.150;18.160;2023-07-30T10:18:33;6.00;;;4.80;;
77453;SDS011;66538;53.150;18.160;2023-07-30T10:21:04;8.60;;;6.70;;
77453;SDS011;66538;53.150;18.160;2023-07-30T10:23:35;6.50;;;5.40;;
77453;SDS011;66538;53.150;18.160;2023-07-30T10:26:11;6.60;;;5.50;;
77453;SDS011;66538;53.150;18.160;2023-07-30T10:28:38;6.50;;;5.40;;
77453;SDS011;66538;53.150;18.160;2023-07-30T10:31:09;6.90;;;5.50;;
77453;SDS011;66538;53.150;18.160;2023-07-30T10:33:56;6.30;;;5.20;;
77453;SDS011;66538;53.150;18.160;2023-07-30T10:36:32;7.40;;;5.70;;
77453;SDS011;66538;53.150;18.160;2023-07-30T10:41:49;6.10;;;4.90;;
77453;SDS011;66538;53.150;18.160;2023-07-30T10:46:46;7.20;;;4.00;;
77453;SDS011;66538;53.150;18.160;2023-07-30T10:49:13;7.50;;;4.90;;
77453;SDS011;66538;53.150;18.160;2023-07-30T10:51:39;5.70;;;4.60;;
77453;SDS011;66538;53.150;18.160;2023-07-30T10:54:06;5.80;;;4.60;;
77453;SDS011;66538;53.150;18.160;2023-07-30T10:56:35;6.10;;;4.50;;
77453;SDS011;66538;53.150;18.160;2023-07-30T10:59:04;5.60;;;4.50;;
77453;SDS011;66538;53.150;18.160;2023-07-30T11:01:35;4.90;;;3.80;;
77453;SDS011;66538;53.150;18.160;2023-07-30T11:06:44;5.30;;;4.20;;
77453;SDS011;66538;53.150;18.160;2023-07-30T11:11:49;5.30;;;4.40;;
77453;SDS011;66538;53.150;18.160;2023-07-30T11:14:21;5.60;;;4.40;;
77453;SDS011;66538;53.150;18.160;2023-07-30T11:19:25;4.90;;;3.80;;
77453;SDS011;66538;53.150;18.160;2023-07-30T11:21:55;5.10;;;3.60;;
77453;SDS011;66538;53.150;18.160;2023-07-30T11:24:33;6.10;;;4.00;;
77453;SDS011;66538;53.150;18.160;2023-07-30T11:27:01;4.80;;;3.70;;
77453;SDS011;66538;53.150;18.160;2023-07-30T11:29:28;5.50;;;3.60;;
77453;SDS011;66538;53.150;18.160;2023-07-30T11:31:56;4.90;;;3.30;;
77453;SDS011;66538;53.150;18.160;2023-07-30T11:34:26;5.40;;;4.00;;
77453;SDS011;66538;53.150;18.160;2023-07-30T11:36:53;5.90;;;3.30;;
77453;SDS011;66538;53.150;18.160;2023-07-30T11:39:21;4.90;;;3.30;;
77453;SDS011;66538;53.150;18.160;2023-07-30T11:41:49;5.60;;;3.30;;
77453;SDS011;66538;53.150;18.160;2023-07-30T11:44:50;4.00;;;2.60;;
77453;SDS011;66538;53.150;18.160;2023-07-30T11:47:09;5.10;;;3.40;;
77453;SDS011;66538;53.150;18.160;2023-07-30T11:49:35;5.00;;;3.30;;
77453;SDS011;66538;53.150;18.160;2023-07-30T11:54:33;4.90;;;3.30;;
77453;SDS011;66538;53.150;18.160;2023-07-30T11:57:00;4.70;;;3.10;;
77453;SDS011;66538;53.150;18.160;2023-07-30T11:59:27;4.90;;;2.90;;
77453;SDS011;66538;53.150;18.160;2023-07-30T12:01:54;5.90;;;3.20;;
77453;SDS011;66538;53.150;18.160;2023-07-30T12:04:21;5.20;;;3.40;;
77453;SDS011;66538;53.150;18.160;2023-07-30T12:06:48;4.20;;;3.10;;
77453;SDS011;66538;53.150;18.160;2023-07-30T12:09:20;4.70;;;2.90;;
77453;SDS011;66538;53.150;18.160;2023-07-30T12:11:57;4.30;;;3.10;;
77453;SDS011;66538;53.150;18.160;2023-07-30T12:14:27;5.30;;;3.10;;
77453;SDS011;66538;53.150;18.160;2023-07-30T12:16:59;6.50;;;4.90;;
77453;SDS011;66538;53.150;18.160;2023-07-30T12:19:26;5.70;;;3.50;;
77453;SDS011;66538;53.150;18.160;2023-07-30T12:21:52;5.50;;;4.10;;
77453;SDS011;66538;53.150;18.160;2023-07-30T12:24:19;5.50;;;4.10;;
77453;SDS011;66538;53.150;18.160;2023-07-30T12:26:46;4.90;;;3.70;;
77453;SDS011;66538;53.150;18.160;2023-07-30T12:29:13;6.00;;;3.50;;
77453;SDS011;66538;53.150;18.160;2023-07-30T12:31:40;6.70;;;3.30;;
77453;SDS011;66538;53.150;18.160;2023-07-30T12:34:07;5.60;;;4.00;;
77453;SDS011;66538;53.150;18.160;2023-07-30T12:36:35;5.80;;;4.20;;
77453;SDS011;66538;53.150;18.160;2023-07-30T12:39:03;5.40;;;4.00;;
77453;SDS011;66538;53.150;18.160;2023-07-30T12:41:30;6.10;;;3.70;;
77453;SDS011;66538;53.150;18.160;2023-07-30T12:43:57;5.20;;;3.50;;
77453;SDS011;66538;53.150;18.160;2023-07-30T12:46:24;5.30;;;3.10;;
77453;SDS011;66538;53.150;18.160;2023-07-30T12:48:51;4.70;;;3.40;;
77453;SDS011;66538;53.150;18.160;2023-07-30T12:51:18;4.60;;;2.80;;
77453;SDS011;66538;53.150;18.160;2023-07-30T12:53:45;4.20;;;2.90;;
77453;SDS011;66538;53.150;18.160;2023-07-30T12:56:11;4.80;;;3.50;;
77453;SDS011;66538;53.150;18.160;2023-07-30T12:58:38;4.00;;;2.80;;
77453;SDS011;66538;53.150;18.160;2023-07-30T13:01:06;3.80;;;2.60;;
77453;SDS011;66538;53.150;18.160;2023-07-30T13:03:33;4.90;;;2.70;;
77453;SDS011;66538;53.150;18.160;2023-07-30T13:05:59;4.40;;;2.50;;
77453;SDS011;66538;53.150;18.160;2023-07-30T13:08:26;4.40;;;2.50;;
77453;SDS011;66538;53.150;18.160;2023-07-30T13:10:53;3.90;;;2.20;;
77453;SDS011;66538;53.150;18.160;2023-07-30T13:13:22;3.50;;;2.30;;
77453;SDS011;66538;53.150;18.160;2023-07-30T13:15:50;4.10;;;2.40;;
77453;SDS011;66538;53.150;18.160;2023-07-30T13:18:16;4.10;;;2.20;;
77453;SDS011;66538;53.150;18.160;2023-07-30T13:20:43;3.60;;;2.10;;
77453;SDS011;66538;53.150;18.160;2023-07-30T13:23:09;4.30;;;2.20;;
77453;SDS011;66538;53.150;18.160;2023-07-30T13:25:37;3.60;;;2.50;;
77453;SDS011;66538;53.150;18.160;2023-07-30T13:28:04;3.80;;;2.20;;
77453;SDS011;66538;53.150;18.160;2023-07-30T13:30:30;4.40;;;2.70;;
77453;SDS011;66538;53.150;18.160;2023-07-30T13:32:57;4.20;;;2.30;;
77453;SDS011;66538;53.150;18.160;2023-07-30T13:35:23;3.50;;;2.30;;
77453;SDS011;66538;53.150;18.160;2023-07-30T13:37:50;3.80;;;2.40;;
77453;SDS011;66538;53.150;18.160;2023-07-30T13:40:16;3.50;;;2.10;;
77453;SDS011;66538;53.150;18.160;2023-07-30T13:42:43;4.60;;;2.50;;
77453;SDS011;66538;53.150;18.160;2023-07-30T13:45:10;4.40;;;2.40;;
77453;SDS011;66538;53.150;18.160;2023-07-30T13:47:37;5.40;;;2.40;;
77453;SDS011;66538;53.150;18.160;2023-07-30T13:50:03;4.00;;;2.50;;
77453;SDS011;66538;53.150;18.160;2023-07-30T13:52:30;4.00;;;2.40;;
77453;SDS011;66538;53.150;18.160;2023-07-30T13:54:57;4.10;;;2.30;;
77453;SDS011;66538;53.150;18.160;2023-07-30T13:57:24;4.50;;;2.60;;
77453;SDS011;66538;53.150;18.160;2023-07-30T13:59:52;3.10;;;1.80;;
77453;SDS011;66538;53.150;18.160;2023-07-30T14:02:19;3.30;;;1.90;;
77453;SDS011;66538;53.150;18.160;2023-07-30T14:04:46;3.10;;;1.90;;
77453;SDS011;66538;53.150;18.160;2023-07-30T14:07:13;3.50;;;1.90;;
77453;SDS011;66538;53.150;18.160;2023-07-30T14:09:39;2.70;;;1.70;;
77453;SDS011;66538;53.150;18.160;2023-07-30T14:12:06;3.80;;;1.90;;
77453;SDS011;66538;53.150;18.160;2023-07-30T14:14:33;3.20;;;1.80;;
77453;SDS011;66538;53.150;18.160;2023-07-30T14:17:00;3.40;;;1.50;;
77453;SDS011;66538;53.150;18.160;2023-07-30T14:19:32;2.70;;;1.30;;
77453;SDS011;66538;53.150;18.160;2023-07-30T14:21:59;3.20;;;1.50;;
77453;SDS011;66538;53.150;18.160;2023-07-30T14:24:27;4.30;;;1.30;;
77453;SDS011;66538;53.150;18.160;2023-07-30T14:26:54;3.50;;;1.60;;
77453;SDS011;66538;53.150;18.160;2023-07-30T14:29:21;2.80;;;1.40;;
77453;SDS011;66538;53.150;18.160;2023-07-30T14:31:48;6.10;;;1.80;;
77453;SDS011;66538;53.150;18.160;2023-07-30T14:34:14;2.90;;;1.60;;
77453;SDS011;66538;53.150;18.160;2023-07-30T14:36:41;3.40;;;1.30;;
77453;SDS011;66538;53.150;18.160;2023-07-30T14:39:08;3.00;;;1.30;;
77453;SDS011;66538;53.150;18.160;2023-07-30T14:41:35;2.90;;;1.40;;
77453;SDS011;66538;53.150;18.160;2023-07-30T14:44:01;3.50;;;1.40;;
77453;SDS011;66538;53.150;18.160;2023-07-30T14:46:28;3.30;;;1.40;;
77453;SDS011;66538;53.150;18.160;2023-07-30T14:51:22;3.00;;;1.60;;
77453;SDS011;66538;53.150;18.160;2023-07-30T14:53:48;2.60;;;1.40;;
77453;SDS011;66538;53.150;18.160;2023-07-30T14:56:15;3.10;;;1.20;;